Estación de Recoleta

Ultimos registro cada 15 minutos 21
Estación Fecha / Hora Temperatura Humedad Lluvia Velocidad Dirección Radiación Presion
21 Recoleta 09-05-2026 05:00 6,3 63 0 0,3 147 0,6 967,9
20 Recoleta 09-05-2026 04:45 4,9 70,9 0 0 302 0,6 967,8
19 Recoleta 09-05-2026 04:30 4,6 73,7 0 0 303 0,6 967,5
18 Recoleta 09-05-2026 04:15 4,5 74,3 0 0 303 0,6 967,4
17 Recoleta 09-05-2026 04:00 4,4 75,3 0 0 303 0,6 967,4
16 Recoleta 09-05-2026 03:45 4,7 74 0 0 305 0,6 967,6
15 Recoleta 09-05-2026 03:30 5,1 72,6 0 0 307 0,6 967,7
14 Recoleta 09-05-2026 03:15 5,2 73,5 0 0 299 0,6 967,7
13 Recoleta 09-05-2026 03:00 5,7 68,3 0 0 298 0,6 967,9
12 Recoleta 09-05-2026 02:45 5,1 72,8 0 0 298 0,6 967,8
11 Recoleta 09-05-2026 02:30 5,2 73 0 0 299 0,6 968,1
10 Recoleta 09-05-2026 02:15 5,5 71,4 0 0 299 0,6 968
9 Recoleta 09-05-2026 02:00 5,9 69,3 0 0 300 0,6 968
8 Recoleta 09-05-2026 01:45 6,3 68,7 0 0 302 0,6 968,2
7 Recoleta 09-05-2026 01:30 6,4 68,1 0 0 307 0,6 968,4
6 Recoleta 09-05-2026 01:15 6,6 67,7 0 0 307 0,6 968,4
5 Recoleta 09-05-2026 01:00 7,3 64,7 0 0 306 0,6 968,6
4 Recoleta 09-05-2026 00:45 6,7 67,3 0 0 305 0,6 968,9
3 Recoleta 09-05-2026 00:30 6,8 68,1 0 0 309 0,6 968,9
2 Recoleta 09-05-2026 00:15 6,8 66,2 0 0 312 0,6 969,2
1 Recoleta 09-05-2026 00:00 7,7 63,8 0 0 307 0,6 969,3